ICE30R BIRK-BIAR
Flight info
| Callsign | ICE30R |
|---|---|
| Flight time | 0h 37m |
| Altitude | 15000 |
| Route | M050F150 DCT GILTU DCT |
| Aircraft | DH8D/M-SDE2E3FGRY/H |
Departure
| Time | 2026-04-27 19:18 |
|---|---|
| Airport | Reykjavík Domestic Airport (BIRK) |
Arrival
| Time | 2026-04-27 19:55 |
|---|---|
| Airport | Akureyri International Airport (BIAR) |
| Time | Latitude | Longitude | Altitude | Speed | Heading |
|---|---|---|---|---|---|
| 2026-04-27 19:08 | 64.13165 | -21.94574 | 37 ft | 0 kts | 84° |
| 2026-04-27 19:11 | 64.13165 | -21.94568 | 37 ft | 2 kts | 88° |
| 2026-04-27 19:12 | 64.13165 | -21.94554 | 37 ft | 0 kts | 105° |
| 2026-04-27 19:12 | 64.13164 | -21.94549 | 37 ft | 1 kts | 109° |
| 2026-04-27 19:12 | 64.13159 | -21.94523 | 37 ft | 2 kts | 114° |
| 2026-04-27 19:12 | 64.13148 | -21.94470 | 37 ft | 5 kts | 115° |
| 2026-04-27 19:13 | 64.13137 | -21.94403 | 38 ft | 3 kts | 106° |
| 2026-04-27 19:13 | 64.13133 | -21.94329 | 38 ft | 6 kts | 91° |
| 2026-04-27 19:13 | 64.13135 | -21.94255 | 38 ft | 3 kts | 86° |
| 2026-04-27 19:13 | 64.13138 | -21.94185 | 39 ft | 5 kts | 83° |
| 2026-04-27 19:14 | 64.13142 | -21.94116 | 39 ft | 3 kts | 81° |
| 2026-04-27 19:14 | 64.13146 | -21.94066 | 39 ft | 4 kts | 81° |
| 2026-04-27 19:14 | 64.13149 | -21.93998 | 39 ft | 3 kts | 85° |
| 2026-04-27 19:14 | 64.13152 | -21.93944 | 40 ft | 5 kts | 83° |
| 2026-04-27 19:15 | 64.13156 | -21.93879 | 40 ft | 3 kts | 83° |
| 2026-04-27 19:15 | 64.13171 | -21.93811 | 40 ft | 7 kts | 32° |
| 2026-04-27 19:15 | 64.13242 | -21.93815 | 40 ft | 12 kts | 354° |
| 2026-04-27 19:15 | 64.13338 | -21.93837 | 40 ft | 15 kts | 354° |
| 2026-04-27 19:16 | 64.13456 | -21.93863 | 39 ft | 18 kts | 355° |
| 2026-04-27 19:16 | 64.13545 | -21.93881 | 38 ft | 20 kts | 355° |
| 2026-04-27 19:16 | 64.13637 | -21.93909 | 37 ft | 2 kts | 94° |
| 2026-04-27 19:16 | 64.13631 | -21.93897 | 37 ft | 0 kts | 163° |
| 2026-04-27 19:17 | 64.13621 | -21.93897 | 37 ft | 10 kts | 182° |
| 2026-04-27 19:17 | 64.13268 | -21.93825 | 40 ft | 88 kts | 174° |
| 2026-04-27 19:17 | 64.12470 | -21.93679 | 61 ft | 134 kts | 172° |
| 2026-04-27 19:18 | 64.11530 | -21.93557 | 607 ft | 137 kts | 174° |
| 2026-04-27 19:18 | 64.10571 | -21.93615 | 1171 ft | 143 kts | 181° |
| 2026-04-27 19:18 | 64.09596 | -21.93837 | 1798 ft | 141 kts | 180° |
| 2026-04-27 19:18 | 64.08668 | -21.93700 | 2360 ft | 137 kts | 156° |
| 2026-04-27 19:19 | 64.08086 | -21.91698 | 2449 ft | 183 kts | 107° |
| 2026-04-27 19:19 | 64.08491 | -21.88671 | 2733 ft | 224 kts | 61° |
| 2026-04-27 19:19 | 64.09734 | -21.86283 | 3115 ft | 240 kts | 45° |
| 2026-04-27 19:19 | 64.10844 | -21.83561 | 3491 ft | 236 kts | 63° |
| 2026-04-27 19:20 | 64.11809 | -21.80500 | 3959 ft | 240 kts | 63° |
| 2026-04-27 19:20 | 64.12812 | -21.77441 | 4466 ft | 239 kts | 60° |
| 2026-04-27 19:20 | 64.13842 | -21.74416 | 4902 ft | 244 kts | 61° |
| 2026-04-27 19:20 | 64.14899 | -21.71358 | 5340 ft | 248 kts | 59° |
| 2026-04-27 19:21 | 64.15984 | -21.68296 | 5830 ft | 250 kts | 58° |
| 2026-04-27 19:21 | 64.17084 | -21.65223 | 6286 ft | 252 kts | 58° |
| 2026-04-27 19:21 | 64.18219 | -21.62066 | 6664 ft | 259 kts | 57° |
| 2026-04-27 19:21 | 64.19370 | -21.58902 | 7194 ft | 259 kts | 57° |
| 2026-04-27 19:22 | 64.20530 | -21.55715 | 7622 ft | 264 kts | 58° |
| 2026-04-27 19:22 | 64.21706 | -21.52497 | 8101 ft | 265 kts | 57° |
| 2026-04-27 19:22 | 64.22903 | -21.49218 | 8478 ft | 271 kts | 57° |
| 2026-04-27 19:22 | 64.24118 | -21.45898 | 8828 ft | 282 kts | 57° |
| 2026-04-27 19:23 | 64.25439 | -21.42246 | 8703 ft | 308 kts | 56° |
| 2026-04-27 19:23 | 64.26836 | -21.38428 | 8952 ft | 317 kts | 56° |
| 2026-04-27 19:23 | 64.28268 | -21.34523 | 9281 ft | 321 kts | 56° |
| 2026-04-27 19:23 | 64.29713 | -21.30579 | 9673 ft | 323 kts | 56° |
| 2026-04-27 19:24 | 64.31169 | -21.26594 | 9971 ft | 327 kts | 56° |
| 2026-04-27 19:24 | 64.32631 | -21.22587 | 10380 ft | 329 kts | 56° |
| 2026-04-27 19:24 | 64.34103 | -21.18547 | 10872 ft | 325 kts | 56° |
| 2026-04-27 19:24 | 64.35568 | -21.14506 | 11005 ft | 338 kts | 56° |
| 2026-04-27 19:25 | 64.37067 | -21.10367 | 11366 ft | 342 kts | 55° |
| 2026-04-27 19:25 | 64.38580 | -21.06183 | 11913 ft | 337 kts | 56° |
| 2026-04-27 19:25 | 64.40095 | -21.01977 | 12071 ft | 347 kts | 55° |
| 2026-04-27 19:25 | 64.41625 | -20.97730 | 12485 ft | 350 kts | 56° |
| 2026-04-27 19:26 | 64.43177 | -20.93402 | 12852 ft | 350 kts | 55° |
| 2026-04-27 19:26 | 64.44730 | -20.89084 | 13348 ft | 347 kts | 55° |
| 2026-04-27 19:26 | 64.46265 | -20.84799 | 13802 ft | 346 kts | 54° |
| 2026-04-27 19:26 | 64.47794 | -20.80517 | 14238 ft | 346 kts | 54° |
| 2026-04-27 19:27 | 64.49308 | -20.76275 | 14661 ft | 346 kts | 54° |
| 2026-04-27 19:27 | 64.50856 | -20.71916 | 14745 ft | 359 kts | 54° |
| 2026-04-27 19:27 | 64.52454 | -20.67401 | 14775 ft | 371 kts | 54° |
| 2026-04-27 19:27 | 64.54108 | -20.62726 | 14765 ft | 380 kts | 53° |
| 2026-04-27 19:28 | 64.55809 | -20.57919 | 14774 ft | 386 kts | 53° |
| 2026-04-27 19:28 | 64.57509 | -20.53105 | 14766 ft | 391 kts | 53° |
| 2026-04-27 19:28 | 64.59235 | -20.48210 | 14769 ft | 393 kts | 53° |
| 2026-04-27 19:28 | 64.60979 | -20.43254 | 14764 ft | 392 kts | 53° |
| 2026-04-27 19:29 | 64.62698 | -20.38358 | 14764 ft | 393 kts | 52° |
| 2026-04-27 19:29 | 64.64416 | -20.33449 | 14762 ft | 395 kts | 54° |
| 2026-04-27 19:29 | 64.66159 | -20.28452 | 14769 ft | 397 kts | 53° |
| 2026-04-27 19:29 | 64.67895 | -20.23468 | 14759 ft | 399 kts | 54° |
| 2026-04-27 19:30 | 64.69648 | -20.18421 | 14770 ft | 399 kts | 54° |
| 2026-04-27 19:30 | 64.71388 | -20.13398 | 14759 ft | 400 kts | 54° |
| 2026-04-27 19:30 | 64.73136 | -20.08345 | 14740 ft | 402 kts | 54° |
| 2026-04-27 19:30 | 64.74876 | -20.03302 | 14737 ft | 402 kts | 54° |
| 2026-04-27 19:31 | 64.76631 | -19.98203 | 14747 ft | 403 kts | 53° |
| 2026-04-27 19:31 | 64.78374 | -19.93129 | 14762 ft | 403 kts | 54° |
| 2026-04-27 19:31 | 64.80136 | -19.87989 | 14761 ft | 404 kts | 54° |
| 2026-04-27 19:31 | 64.81888 | -19.82863 | 14752 ft | 402 kts | 53° |
| 2026-04-27 19:32 | 64.83621 | -19.77784 | 14746 ft | 401 kts | 53° |
| 2026-04-27 19:32 | 64.85349 | -19.72710 | 14752 ft | 399 kts | 53° |
| 2026-04-27 19:32 | 64.87089 | -19.67583 | 14746 ft | 397 kts | 53° |
| 2026-04-27 19:32 | 64.88780 | -19.62592 | 14747 ft | 395 kts | 53° |
| 2026-04-27 19:33 | 64.90505 | -19.57492 | 14745 ft | 394 kts | 53° |
| 2026-04-27 19:33 | 64.91618 | -19.54191 | 14756 ft | 393 kts | 53° |
| 2026-04-27 19:33 | 64.93875 | -19.47483 | 14766 ft | 393 kts | 52° |
| 2026-04-27 19:33 | 64.95567 | -19.42442 | 14767 ft | 393 kts | 53° |
| 2026-04-27 19:34 | 64.97262 | -19.37379 | 14771 ft | 393 kts | 52° |
| 2026-04-27 19:34 | 64.98965 | -19.32283 | 14768 ft | 394 kts | 53° |
| 2026-04-27 19:34 | 65.00654 | -19.27214 | 14774 ft | 393 kts | 54° |
| 2026-04-27 19:34 | 65.02337 | -19.22155 | 14775 ft | 393 kts | 53° |
| 2026-04-27 19:35 | 65.04017 | -19.17089 | 14770 ft | 394 kts | 54° |
| 2026-04-27 19:35 | 65.05700 | -19.12005 | 14768 ft | 394 kts | 53° |
| 2026-04-27 19:35 | 65.07369 | -19.06952 | 14771 ft | 394 kts | 53° |
| 2026-04-27 19:35 | 65.09071 | -19.01788 | 14772 ft | 394 kts | 53° |
| 2026-04-27 19:36 | 65.10731 | -18.96738 | 14762 ft | 394 kts | 52° |
| 2026-04-27 19:36 | 65.12429 | -18.91565 | 14764 ft | 393 kts | 52° |
| 2026-04-27 19:36 | 65.14108 | -18.86434 | 14776 ft | 392 kts | 52° |
| 2026-04-27 19:36 | 65.15770 | -18.81343 | 14772 ft | 392 kts | 53° |
| 2026-04-27 19:37 | 65.17435 | -18.76232 | 14773 ft | 392 kts | 52° |
| 2026-04-27 19:37 | 65.19088 | -18.71147 | 14772 ft | 392 kts | 53° |
| 2026-04-27 19:37 | 65.20760 | -18.65993 | 14775 ft | 392 kts | 53° |
| 2026-04-27 19:37 | 65.22420 | -18.60864 | 14772 ft | 392 kts | 53° |
| 2026-04-27 19:38 | 65.24071 | -18.55749 | 14780 ft | 392 kts | 53° |
| 2026-04-27 19:38 | 65.25721 | -18.50625 | 14770 ft | 392 kts | 53° |
| 2026-04-27 19:38 | 65.27370 | -18.45493 | 14770 ft | 392 kts | 53° |
| 2026-04-27 19:38 | 65.29027 | -18.40342 | 14767 ft | 385 kts | 52° |
| 2026-04-27 19:39 | 65.30924 | -18.36001 | 14753 ft | 378 kts | 29° |
| 2026-04-27 19:39 | 65.33273 | -18.33568 | 14793 ft | 365 kts | 14° |
| 2026-04-27 19:39 | 65.35694 | -18.31660 | 14793 ft | 363 kts | 14° |
| 2026-04-27 19:39 | 65.38064 | -18.29827 | 14796 ft | 361 kts | 13° |
| 2026-04-27 19:40 | 65.40456 | -18.27986 | 14794 ft | 360 kts | 13° |
| 2026-04-27 19:40 | 65.42839 | -18.26152 | 14792 ft | 359 kts | 12° |
| 2026-04-27 19:40 | 65.45204 | -18.24331 | 14792 ft | 359 kts | 13° |
| 2026-04-27 19:40 | 65.47598 | -18.22491 | 14506 ft | 368 kts | 13° |
| 2026-04-27 19:41 | 65.50056 | -18.20600 | 14092 ft | 378 kts | 13° |
| 2026-04-27 19:41 | 65.52560 | -18.18675 | 13657 ft | 387 kts | 13° |
| 2026-04-27 19:41 | 65.55138 | -18.16691 | 13170 ft | 395 kts | 13° |
| 2026-04-27 19:41 | 65.57766 | -18.14661 | 12643 ft | 389 kts | 13° |
| 2026-04-27 19:42 | 65.60258 | -18.12731 | 12162 ft | 376 kts | 14° |
| 2026-04-27 19:42 | 65.62711 | -18.10826 | 11717 ft | 363 kts | 13° |
| 2026-04-27 19:42 | 65.65060 | -18.09001 | 11339 ft | 350 kts | 13° |
| 2026-04-27 19:42 | 65.67329 | -18.07231 | 10953 ft | 340 kts | 13° |
| 2026-04-27 19:43 | 65.69559 | -18.05491 | 10536 ft | 331 kts | 13° |
| 2026-04-27 19:43 | 65.71715 | -18.03810 | 10141 ft | 323 kts | 13° |
| 2026-04-27 19:43 | 65.73816 | -18.02258 | 9672 ft | 317 kts | 6° |
| 2026-04-27 19:43 | 65.75892 | -18.02331 | 9218 ft | 285 kts | 332° |
| 2026-04-27 19:44 | 65.77549 | -18.04254 | 9016 ft | 254 kts | 317° |
| 2026-04-27 19:44 | 65.79019 | -18.06634 | 8638 ft | 254 kts | 313° |
| 2026-04-27 19:44 | 65.80531 | -18.08976 | 8312 ft | 259 kts | 315° |
| 2026-04-27 19:44 | 65.82025 | -18.11435 | 7906 ft | 266 kts | 313° |
| 2026-04-27 19:45 | 65.83502 | -18.14137 | 7489 ft | 269 kts | 310° |
| 2026-04-27 19:45 | 65.84898 | -18.17202 | 7005 ft | 269 kts | 303° |
| 2026-04-27 19:45 | 65.86331 | -18.20120 | 6855 ft | 265 kts | 314° |
| 2026-04-27 19:45 | 65.87738 | -18.22833 | 6667 ft | 251 kts | 307° |
| 2026-04-27 19:46 | 65.89018 | -18.25695 | 6344 ft | 252 kts | 306° |
| 2026-04-27 19:46 | 65.90272 | -18.28645 | 6064 ft | 252 kts | 306° |
| 2026-04-27 19:46 | 65.91565 | -18.31524 | 5886 ft | 249 kts | 309° |
| 2026-04-27 19:46 | 65.93038 | -18.33805 | 5636 ft | 259 kts | 335° |
| 2026-04-27 19:47 | 65.94801 | -18.34282 | 5503 ft | 250 kts | 359° |
| 2026-04-27 19:47 | 65.96442 | -18.33311 | 5239 ft | 240 kts | 26° |
| 2026-04-27 19:47 | 65.97611 | -18.30695 | 4923 ft | 219 kts | 69° |
| 2026-04-27 19:47 | 65.98026 | -18.27421 | 4662 ft | 192 kts | 96° |
| 2026-04-27 19:48 | 65.97655 | -18.24586 | 4268 ft | 167 kts | 147° |
| 2026-04-27 19:48 | 65.96667 | -18.23481 | 3987 ft | 155 kts | 178° |
| 2026-04-27 19:48 | 65.95573 | -18.23289 | 3791 ft | 162 kts | 176° |
| 2026-04-27 19:48 | 65.94466 | -18.22979 | 3824 ft | 158 kts | 173° |
| 2026-04-27 19:49 | 65.93367 | -18.22539 | 3770 ft | 166 kts | 174° |
| 2026-04-27 19:49 | 65.92212 | -18.22068 | 3707 ft | 175 kts | 175° |
| 2026-04-27 19:49 | 65.90994 | -18.21712 | 3706 ft | 178 kts | 176° |
| 2026-04-27 19:49 | 65.89738 | -18.21371 | 3690 ft | 184 kts | 177° |
| 2026-04-27 19:50 | 65.88471 | -18.21026 | 3756 ft | 185 kts | 174° |
| 2026-04-27 19:50 | 65.87200 | -18.20539 | 3786 ft | 190 kts | 171° |
| 2026-04-27 19:50 | 65.85892 | -18.19679 | 3749 ft | 195 kts | 169° |
| 2026-04-27 19:50 | 65.84603 | -18.18946 | 3911 ft | 191 kts | 170° |
| 2026-04-27 19:51 | 65.83330 | -18.18009 | 4008 ft | 191 kts | 165° |
| 2026-04-27 19:51 | 65.82087 | -18.16864 | 4000 ft | 197 kts | 164° |
| 2026-04-27 19:51 | 65.80755 | -18.15559 | 3540 ft | 203 kts | 161° |
| 2026-04-27 19:51 | 65.79537 | -18.14171 | 3336 ft | 192 kts | 159° |
| 2026-04-27 19:52 | 65.78313 | -18.12898 | 2798 ft | 194 kts | 160° |
| 2026-04-27 19:52 | 65.77071 | -18.11794 | 2417 ft | 188 kts | 163° |
| 2026-04-27 19:52 | 65.75860 | -18.10816 | 2068 ft | 183 kts | 162° |
| 2026-04-27 19:52 | 65.74650 | -18.09936 | 1675 ft | 180 kts | 167° |
| 2026-04-27 19:53 | 65.72392 | -18.08841 | 1131 ft | 155 kts | 172° |
| 2026-04-27 19:53 | 65.71395 | -18.08440 | 1013 ft | 135 kts | 174° |
| 2026-04-27 19:53 | 65.70505 | -18.08125 | 809 ft | 125 kts | 174° |
| 2026-04-27 19:54 | 65.69673 | -18.07826 | 635 ft | 120 kts | 180° |
| 2026-04-27 19:54 | 65.68840 | -18.07811 | 474 ft | 118 kts | 178° |
| 2026-04-27 19:54 | 65.67999 | -18.07646 | 336 ft | 123 kts | 180° |
| 2026-04-27 19:54 | 65.67165 | -18.07479 | 154 ft | 118 kts | 178° |
| 2026-04-27 19:55 | 65.66363 | -18.07331 | 8 ft | 108 kts | 175° |
| 2026-04-27 19:55 | 65.65868 | -18.07239 | 8 ft | 49 kts | 174° |
| 2026-04-27 19:55 | 65.65617 | -18.07192 | 8 ft | 26 kts | 177° |
| 2026-04-27 19:55 | 65.65499 | -18.07177 | 9 ft | 6 kts | 188° |
| 2026-04-27 19:56 | 65.65480 | -18.07220 | 9 ft | 2 kts | 253° |
| 2026-04-27 19:56 | 65.65479 | -18.07286 | 9 ft | 3 kts | 266° |
| 2026-04-27 19:56 | 65.65478 | -18.07329 | 9 ft | 3 kts | 280° |
| 2026-04-27 19:56 | 65.65502 | -18.07439 | 9 ft | 8 kts | 282° |
| 2026-04-27 19:57 | 65.65504 | -18.07492 | 9 ft | 0 kts | 236° |
| 2026-04-27 19:57 | 65.65499 | -18.07494 | 9 ft | 0 kts | 174° |
| 2026-04-27 19:57 | 65.65495 | -18.07484 | 9 ft | 0 kts | 113° |
| 2026-04-27 19:57 | 65.65495 | -18.07483 | 9 ft | 0 kts | 114° |